HYM483 LUKK-LIME
Flight info
| Callsign | HYM483 |
|---|---|
| Flight time | 2h 41m |
| Altitude | 38000 |
| Route | NUNTA DCT VEBAL DCT KOTOR DCT NAKIT DCT ROTAR DCT LAPAB DCT ADOSA/N0439F370 DCT IDREK DCT ELTAR DCT NOBMI/N0331F180 L615 OSKOR |
| Aircraft | A320/M-SDE3FGHIRWY/LB1 |
Departure
| Time | 2026-05-08 18:57 |
|---|---|
| Airport | Chişinău International Airport (LUKK) |
Arrival
| Time | 2026-05-08 21:38 |
|---|---|
| Airport | Il Caravaggio International Airport (LIME) |
| Time | Latitude | Longitude | Altitude | Speed | Heading |
|---|---|---|---|---|---|
| 2026-05-08 18:32 | 46.93515 | 28.93020 | 151 ft | 0 kts | 51° |
| 2026-05-08 18:48 | 46.93513 | 28.93016 | 408 ft | 2 kts | 51° |
| 2026-05-08 18:48 | 46.93502 | 28.92995 | 408 ft | 3 kts | 54° |
| 2026-05-08 18:49 | 46.93490 | 28.92970 | 405 ft | 3 kts | 60° |
| 2026-05-08 18:49 | 46.93481 | 28.92944 | 405 ft | 3 kts | 70° |
| 2026-05-08 18:49 | 46.93476 | 28.92916 | 403 ft | 3 kts | 89° |
| 2026-05-08 18:49 | 46.93476 | 28.92905 | 405 ft | 0 kts | 96° |
| 2026-05-08 18:52 | 46.93476 | 28.92906 | 405 ft | 0 kts | 96° |
| 2026-05-08 18:53 | 46.93476 | 28.92908 | 408 ft | 0 kts | 87° |
| 2026-05-08 18:53 | 46.93470 | 28.92923 | 406 ft | 1 kts | 180° |
| 2026-05-08 18:53 | 46.93466 | 28.92906 | 404 ft | 3 kts | 270° |
| 2026-05-08 18:53 | 46.93482 | 28.92825 | 408 ft | 13 kts | 282° |
| 2026-05-08 18:54 | 46.93419 | 28.92756 | 408 ft | 14 kts | 185° |
| 2026-05-08 18:54 | 46.93314 | 28.92739 | 406 ft | 16 kts | 186° |
| 2026-05-08 18:54 | 46.93223 | 28.92705 | 404 ft | 12 kts | 232° |
| 2026-05-08 18:54 | 46.93224 | 28.92570 | 406 ft | 15 kts | 278° |
| 2026-05-08 18:55 | 46.93254 | 28.92210 | 407 ft | 19 kts | 277° |
| 2026-05-08 18:55 | 46.93240 | 28.92043 | 407 ft | 16 kts | 219° |
| 2026-05-08 18:55 | 46.93129 | 28.91994 | 408 ft | 18 kts | 194° |
| 2026-05-08 18:56 | 46.93001 | 28.91991 | 406 ft | 20 kts | 176° |
| 2026-05-08 18:56 | 46.92856 | 28.91996 | 408 ft | 22 kts | 177° |
| 2026-05-08 18:56 | 46.92760 | 28.92015 | 409 ft | 10 kts | 126° |
| 2026-05-08 18:56 | 46.92759 | 28.92134 | 408 ft | 13 kts | 87° |
| 2026-05-08 18:57 | 46.92763 | 28.92327 | 408 ft | 39 kts | 89° |
| 2026-05-08 18:57 | 46.92773 | 28.92753 | 408 ft | 87 kts | 88° |
| 2026-05-08 18:57 | 46.92805 | 28.94454 | 411 ft | 159 kts | 89° |
| 2026-05-08 18:57 | 46.92854 | 28.96111 | 1062 ft | 154 kts | 88° |
| 2026-05-08 18:58 | 46.92877 | 28.97649 | 1813 ft | 151 kts | 95° |
| 2026-05-08 18:58 | 46.92890 | 28.99209 | 2394 ft | 158 kts | 88° |
| 2026-05-08 18:58 | 46.92943 | 29.00856 | 2844 ft | 168 kts | 89° |
| 2026-05-08 18:58 | 46.92978 | 29.02663 | 3111 ft | 189 kts | 89° |
| 2026-05-08 18:59 | 46.93031 | 29.04696 | 3332 ft | 211 kts | 83° |
| 2026-05-08 18:59 | 46.93692 | 29.06683 | 3586 ft | 230 kts | 41° |
| 2026-05-08 18:59 | 46.95191 | 29.07650 | 3883 ft | 250 kts | 1° |
| 2026-05-08 18:59 | 46.96894 | 29.06996 | 4436 ft | 262 kts | 324° |
| 2026-05-08 19:00 | 46.97782 | 29.05791 | 4965 ft | 265 kts | 308° |
| 2026-05-08 19:00 | 46.98809 | 29.02512 | 6099 ft | 271 kts | 279° |
| 2026-05-08 19:00 | 46.99125 | 28.99775 | 6953 ft | 275 kts | 278° |
| 2026-05-08 19:00 | 46.99418 | 28.96996 | 7817 ft | 277 kts | 277° |
| 2026-05-08 19:01 | 46.99705 | 28.94187 | 8704 ft | 280 kts | 277° |
| 2026-05-08 19:01 | 46.99995 | 28.91354 | 9576 ft | 283 kts | 277° |
| 2026-05-08 19:01 | 47.00291 | 28.88483 | 10341 ft | 289 kts | 277° |
| 2026-05-08 19:01 | 47.00600 | 28.85455 | 10611 ft | 312 kts | 277° |
| 2026-05-08 19:02 | 47.00930 | 28.82210 | 10953 ft | 329 kts | 278° |
| 2026-05-08 19:02 | 47.01270 | 28.78861 | 11604 ft | 335 kts | 278° |
| 2026-05-08 19:02 | 47.01618 | 28.75472 | 12336 ft | 338 kts | 278° |
| 2026-05-08 19:02 | 47.01971 | 28.72049 | 13079 ft | 341 kts | 278° |
| 2026-05-08 19:03 | 47.02205 | 28.69769 | 13563 ft | 343 kts | 278° |
| 2026-05-08 19:03 | 47.02671 | 28.65171 | 14455 ft | 346 kts | 277° |
| 2026-05-08 19:03 | 47.03023 | 28.61665 | 15081 ft | 349 kts | 277° |
| 2026-05-08 19:03 | 47.03378 | 28.58132 | 15707 ft | 352 kts | 277° |
| 2026-05-08 19:04 | 47.03720 | 28.54730 | 16321 ft | 354 kts | 277° |
| 2026-05-08 19:04 | 47.04078 | 28.51143 | 16930 ft | 357 kts | 277° |
| 2026-05-08 19:04 | 47.04321 | 28.48700 | 17348 ft | 359 kts | 277° |
| 2026-05-08 19:04 | 47.04683 | 28.45062 | 17956 ft | 362 kts | 277° |
| 2026-05-08 19:05 | 47.05049 | 28.41395 | 18542 ft | 365 kts | 277° |
| 2026-05-08 19:05 | 47.05417 | 28.37694 | 19082 ft | 369 kts | 277° |
| 2026-05-08 19:05 | 47.05784 | 28.33958 | 19629 ft | 372 kts | 277° |
| 2026-05-08 19:05 | 47.06155 | 28.30191 | 20186 ft | 375 kts | 277° |
| 2026-05-08 19:06 | 47.06527 | 28.26397 | 20731 ft | 377 kts | 277° |
| 2026-05-08 19:06 | 47.06901 | 28.22575 | 21249 ft | 380 kts | 277° |
| 2026-05-08 19:06 | 47.07274 | 28.18718 | 21761 ft | 383 kts | 277° |
| 2026-05-08 19:06 | 47.07648 | 28.14837 | 22277 ft | 386 kts | 277° |
| 2026-05-08 19:07 | 47.08024 | 28.10930 | 22782 ft | 388 kts | 277° |
| 2026-05-08 19:07 | 47.08401 | 28.07000 | 23292 ft | 391 kts | 277° |
| 2026-05-08 19:07 | 47.08782 | 28.03039 | 23781 ft | 393 kts | 277° |
| 2026-05-08 19:07 | 47.09163 | 27.99063 | 24204 ft | 395 kts | 277° |
| 2026-05-08 19:08 | 47.09546 | 27.95057 | 24636 ft | 397 kts | 277° |
| 2026-05-08 19:08 | 47.09928 | 27.91037 | 25062 ft | 399 kts | 277° |
| 2026-05-08 19:08 | 47.10276 | 27.86990 | 25489 ft | 400 kts | 273° |
| 2026-05-08 19:08 | 47.10260 | 27.82960 | 25899 ft | 401 kts | 264° |
| 2026-05-08 19:09 | 47.10016 | 27.78878 | 26317 ft | 403 kts | 264° |
| 2026-05-08 19:09 | 47.09770 | 27.74772 | 26731 ft | 404 kts | 264° |
| 2026-05-08 19:09 | 47.09525 | 27.70649 | 27129 ft | 406 kts | 264° |
| 2026-05-08 19:09 | 47.09279 | 27.66512 | 27528 ft | 408 kts | 264° |
| 2026-05-08 19:10 | 47.09035 | 27.62350 | 27942 ft | 410 kts | 265° |
| 2026-05-08 19:10 | 47.08788 | 27.58172 | 28359 ft | 412 kts | 264° |
| 2026-05-08 19:10 | 47.08538 | 27.53976 | 28770 ft | 414 kts | 264° |
| 2026-05-08 19:10 | 47.08286 | 27.49765 | 29171 ft | 416 kts | 264° |
| 2026-05-08 19:11 | 47.08029 | 27.45527 | 29562 ft | 418 kts | 264° |
| 2026-05-08 19:11 | 47.07765 | 27.41271 | 29939 ft | 420 kts | 264° |
| 2026-05-08 19:11 | 47.07496 | 27.36994 | 30282 ft | 422 kts | 264° |
| 2026-05-08 19:11 | 47.07228 | 27.32698 | 30643 ft | 423 kts | 264° |
| 2026-05-08 19:12 | 47.06960 | 27.28415 | 31133 ft | 421 kts | 264° |
| 2026-05-08 19:12 | 47.06693 | 27.24159 | 31646 ft | 418 kts | 264° |
| 2026-05-08 19:12 | 47.06425 | 27.19923 | 32163 ft | 416 kts | 264° |
| 2026-05-08 19:12 | 47.06154 | 27.15715 | 32674 ft | 413 kts | 264° |
| 2026-05-08 19:13 | 47.05884 | 27.11531 | 33189 ft | 411 kts | 264° |
| 2026-05-08 19:13 | 47.05617 | 27.07366 | 33707 ft | 409 kts | 264° |
| 2026-05-08 19:13 | 47.05351 | 27.03230 | 34207 ft | 407 kts | 264° |
| 2026-05-08 19:13 | 47.05083 | 26.99111 | 34636 ft | 405 kts | 264° |
| 2026-05-08 19:14 | 47.04810 | 26.94998 | 35022 ft | 404 kts | 264° |
| 2026-05-08 19:14 | 47.04535 | 26.90901 | 35383 ft | 404 kts | 264° |
| 2026-05-08 19:14 | 47.04262 | 26.86808 | 35723 ft | 403 kts | 264° |
| 2026-05-08 19:14 | 47.03990 | 26.82718 | 36063 ft | 403 kts | 264° |
| 2026-05-08 19:15 | 47.03718 | 26.78632 | 36389 ft | 403 kts | 264° |
| 2026-05-08 19:15 | 47.03450 | 26.74605 | 36721 ft | 402 kts | 264° |
| 2026-05-08 19:15 | 47.03178 | 26.70526 | 37041 ft | 402 kts | 264° |
| 2026-05-08 19:15 | 47.02904 | 26.66455 | 37352 ft | 402 kts | 264° |
| 2026-05-08 19:16 | 47.02627 | 26.62385 | 37661 ft | 401 kts | 264° |
| 2026-05-08 19:16 | 47.02348 | 26.58319 | 37961 ft | 401 kts | 264° |
| 2026-05-08 19:16 | 47.02066 | 26.54244 | 38079 ft | 403 kts | 264° |
| 2026-05-08 19:17 | 47.01487 | 26.46029 | 38092 ft | 407 kts | 264° |
| 2026-05-08 19:17 | 47.00904 | 26.37780 | 38093 ft | 407 kts | 264° |
| 2026-05-08 19:18 | 47.00319 | 26.29539 | 38099 ft | 407 kts | 264° |
| 2026-05-08 19:18 | 46.99730 | 26.21306 | 38099 ft | 406 kts | 264° |
| 2026-05-08 19:19 | 46.99133 | 26.13076 | 38101 ft | 406 kts | 264° |
| 2026-05-08 19:19 | 46.98525 | 26.04850 | 38106 ft | 406 kts | 264° |
| 2026-05-08 19:20 | 46.97917 | 25.96625 | 38112 ft | 406 kts | 264° |
| 2026-05-08 19:20 | 46.97305 | 25.88396 | 38111 ft | 407 kts | 264° |
| 2026-05-08 19:21 | 46.96678 | 25.80163 | 38113 ft | 407 kts | 263° |
| 2026-05-08 19:21 | 46.96045 | 25.71941 | 38110 ft | 407 kts | 263° |
| 2026-05-08 19:22 | 46.95417 | 25.63764 | 38115 ft | 407 kts | 263° |
| 2026-05-08 19:22 | 46.94779 | 25.55533 | 38114 ft | 407 kts | 263° |
| 2026-05-08 19:23 | 46.94131 | 25.47236 | 38116 ft | 408 kts | 263° |
| 2026-05-08 19:23 | 46.93479 | 25.39053 | 38114 ft | 408 kts | 263° |
| 2026-05-08 19:24 | 46.92814 | 25.30810 | 38112 ft | 408 kts | 263° |
| 2026-05-08 19:24 | 46.92148 | 25.22564 | 38113 ft | 409 kts | 263° |
| 2026-05-08 19:25 | 46.91480 | 25.14312 | 38113 ft | 409 kts | 263° |
| 2026-05-08 19:25 | 46.90800 | 25.06061 | 38111 ft | 409 kts | 263° |
| 2026-05-08 19:26 | 46.90116 | 24.97817 | 38106 ft | 409 kts | 263° |
| 2026-05-08 19:26 | 46.89430 | 24.89571 | 38103 ft | 409 kts | 263° |
| 2026-05-08 19:27 | 46.88736 | 24.81328 | 38101 ft | 408 kts | 263° |
| 2026-05-08 19:27 | 46.88034 | 24.73089 | 38096 ft | 408 kts | 263° |
| 2026-05-08 19:28 | 46.87324 | 24.64855 | 38091 ft | 409 kts | 262° |
| 2026-05-08 19:28 | 46.86607 | 24.56616 | 38087 ft | 409 kts | 262° |
| 2026-05-08 19:29 | 46.85888 | 24.48377 | 38091 ft | 409 kts | 262° |
| 2026-05-08 19:29 | 46.85156 | 24.40133 | 38091 ft | 409 kts | 262° |
| 2026-05-08 19:30 | 46.84424 | 24.31895 | 38089 ft | 409 kts | 262° |
| 2026-05-08 19:30 | 46.83690 | 24.23650 | 38092 ft | 409 kts | 262° |
| 2026-05-08 19:31 | 46.82951 | 24.15414 | 38089 ft | 409 kts | 262° |
| 2026-05-08 19:31 | 46.82206 | 24.07189 | 38084 ft | 409 kts | 262° |
| 2026-05-08 19:32 | 46.81447 | 23.98962 | 38077 ft | 409 kts | 262° |
| 2026-05-08 19:32 | 46.80680 | 23.90749 | 38073 ft | 409 kts | 262° |
| 2026-05-08 19:33 | 46.79909 | 23.82532 | 38068 ft | 409 kts | 262° |
| 2026-05-08 19:33 | 46.79141 | 23.74318 | 38069 ft | 409 kts | 262° |
| 2026-05-08 19:34 | 46.78365 | 23.66105 | 38073 ft | 409 kts | 262° |
| 2026-05-08 19:34 | 46.77576 | 23.57889 | 38072 ft | 409 kts | 262° |
| 2026-05-08 19:35 | 46.76777 | 23.49676 | 38076 ft | 409 kts | 262° |
| 2026-05-08 19:35 | 46.75979 | 23.41465 | 38086 ft | 409 kts | 261° |
| 2026-05-08 19:36 | 46.75184 | 23.33252 | 38089 ft | 409 kts | 262° |
| 2026-05-08 19:36 | 46.74379 | 23.25045 | 38097 ft | 409 kts | 261° |
| 2026-05-08 19:37 | 46.73567 | 23.16839 | 38104 ft | 409 kts | 261° |
| 2026-05-08 19:37 | 46.72748 | 23.08633 | 38103 ft | 409 kts | 261° |
| 2026-05-08 19:38 | 46.71917 | 23.00433 | 38111 ft | 409 kts | 261° |
| 2026-05-08 19:38 | 46.71077 | 22.92229 | 38103 ft | 409 kts | 261° |
| 2026-05-08 19:39 | 46.70244 | 22.84023 | 38102 ft | 410 kts | 261° |
| 2026-05-08 19:39 | 46.69409 | 22.75869 | 38098 ft | 410 kts | 261° |
| 2026-05-08 19:40 | 46.68556 | 22.67656 | 38099 ft | 410 kts | 261° |
| 2026-05-08 19:40 | 46.67695 | 22.59437 | 38094 ft | 411 kts | 261° |
| 2026-05-08 19:41 | 46.66831 | 22.51222 | 38094 ft | 411 kts | 261° |
| 2026-05-08 19:41 | 46.65960 | 22.43004 | 38088 ft | 411 kts | 261° |
| 2026-05-08 19:42 | 46.65082 | 22.34779 | 38084 ft | 411 kts | 260° |
| 2026-05-08 19:42 | 46.64199 | 22.26562 | 38082 ft | 411 kts | 260° |
| 2026-05-08 19:43 | 46.63308 | 22.18339 | 38076 ft | 412 kts | 261° |
| 2026-05-08 19:43 | 46.62409 | 22.10113 | 38071 ft | 412 kts | 260° |
| 2026-05-08 19:44 | 46.61510 | 22.01888 | 38064 ft | 412 kts | 260° |
| 2026-05-08 19:44 | 46.60602 | 21.93664 | 38067 ft | 412 kts | 260° |
| 2026-05-08 19:45 | 46.59684 | 21.85441 | 38065 ft | 412 kts | 260° |
| 2026-05-08 19:45 | 46.58791 | 21.77478 | 38063 ft | 412 kts | 260° |
| 2026-05-08 19:46 | 46.57861 | 21.69247 | 38066 ft | 413 kts | 260° |
| 2026-05-08 19:46 | 46.56455 | 21.56880 | 38046 ft | 419 kts | 260° |
| 2026-05-08 19:47 | 46.55490 | 21.48460 | 38041 ft | 431 kts | 260° |
| 2026-05-08 19:47 | 46.54489 | 21.39757 | 38042 ft | 435 kts | 260° |
| 2026-05-08 19:48 | 46.53484 | 21.31139 | 38040 ft | 436 kts | 259° |
| 2026-05-08 19:48 | 46.52466 | 21.22453 | 38039 ft | 436 kts | 259° |
| 2026-05-08 19:49 | 46.51446 | 21.13762 | 38045 ft | 437 kts | 259° |
| 2026-05-08 19:49 | 46.50418 | 21.05070 | 38042 ft | 437 kts | 259° |
| 2026-05-08 19:50 | 46.49377 | 20.96376 | 38046 ft | 437 kts | 259° |
| 2026-05-08 19:50 | 46.48324 | 20.87678 | 38051 ft | 438 kts | 259° |
| 2026-05-08 19:51 | 46.47273 | 20.78969 | 38053 ft | 438 kts | 259° |
| 2026-05-08 19:51 | 46.46215 | 20.70261 | 38051 ft | 439 kts | 259° |
| 2026-05-08 19:52 | 46.45325 | 20.63023 | 38048 ft | 439 kts | 259° |
| 2026-05-08 19:52 | 46.44249 | 20.54317 | 38051 ft | 439 kts | 259° |
| 2026-05-08 19:53 | 46.43177 | 20.45603 | 38048 ft | 439 kts | 259° |
| 2026-05-08 19:53 | 46.42089 | 20.36893 | 38049 ft | 439 kts | 259° |
| 2026-05-08 19:54 | 46.40995 | 20.28186 | 38050 ft | 439 kts | 259° |
| 2026-05-08 19:54 | 46.39886 | 20.19478 | 38048 ft | 439 kts | 259° |
| 2026-05-08 19:55 | 46.38772 | 20.10771 | 38049 ft | 440 kts | 259° |
| 2026-05-08 19:55 | 46.37657 | 20.02067 | 38047 ft | 440 kts | 259° |
| 2026-05-08 19:56 | 46.36535 | 19.93367 | 38053 ft | 440 kts | 259° |
| 2026-05-08 19:56 | 46.35409 | 19.84669 | 38054 ft | 440 kts | 259° |
| 2026-05-08 19:57 | 46.34272 | 19.75977 | 38048 ft | 440 kts | 258° |
| 2026-05-08 19:57 | 46.33128 | 19.67280 | 38052 ft | 440 kts | 258° |
| 2026-05-08 19:58 | 46.31976 | 19.58592 | 38050 ft | 440 kts | 258° |
| 2026-05-08 19:58 | 46.30831 | 19.49954 | 38050 ft | 440 kts | 258° |
| 2026-05-08 19:59 | 46.29671 | 19.41268 | 38051 ft | 440 kts | 258° |
| 2026-05-08 19:59 | 46.28492 | 19.32521 | 38048 ft | 440 kts | 258° |
| 2026-05-08 20:00 | 46.27318 | 19.23835 | 38043 ft | 441 kts | 258° |
| 2026-05-08 20:00 | 46.26138 | 19.15202 | 38040 ft | 441 kts | 258° |
| 2026-05-08 20:01 | 46.24939 | 19.06520 | 38043 ft | 441 kts | 258° |
| 2026-05-08 20:01 | 46.23748 | 18.97826 | 38044 ft | 441 kts | 258° |
| 2026-05-08 20:02 | 46.22544 | 18.89131 | 38051 ft | 442 kts | 258° |
| 2026-05-08 20:02 | 46.21326 | 18.80432 | 38048 ft | 442 kts | 258° |
| 2026-05-08 20:03 | 46.20101 | 18.71734 | 38051 ft | 442 kts | 258° |
| 2026-05-08 20:03 | 46.18873 | 18.63031 | 38054 ft | 443 kts | 258° |
| 2026-05-08 20:04 | 46.17640 | 18.54326 | 38054 ft | 443 kts | 258° |
| 2026-05-08 20:04 | 46.16397 | 18.45625 | 38077 ft | 443 kts | 258° |
| 2026-05-08 20:05 | 46.15142 | 18.36918 | 38080 ft | 443 kts | 258° |
| 2026-05-08 20:05 | 46.13877 | 18.28215 | 38086 ft | 443 kts | 257° |
| 2026-05-08 20:06 | 46.12613 | 18.19515 | 38089 ft | 444 kts | 258° |
| 2026-05-08 20:06 | 46.11350 | 18.10806 | 38088 ft | 444 kts | 258° |
| 2026-05-08 20:07 | 46.10069 | 18.02100 | 38086 ft | 444 kts | 257° |
| 2026-05-08 20:07 | 46.08784 | 17.93399 | 38082 ft | 444 kts | 257° |
| 2026-05-08 20:08 | 46.07494 | 17.84696 | 38076 ft | 444 kts | 257° |
| 2026-05-08 20:08 | 46.06190 | 17.75995 | 38070 ft | 444 kts | 257° |
| 2026-05-08 20:09 | 46.04879 | 17.67296 | 38072 ft | 445 kts | 257° |
| 2026-05-08 20:09 | 46.03564 | 17.58602 | 38072 ft | 445 kts | 257° |
| 2026-05-08 20:10 | 46.02242 | 17.49910 | 38068 ft | 445 kts | 257° |
| 2026-05-08 20:10 | 46.00930 | 17.41277 | 38070 ft | 445 kts | 257° |
| 2026-05-08 20:11 | 45.99589 | 17.32595 | 38066 ft | 445 kts | 257° |
| 2026-05-08 20:11 | 45.97474 | 17.24276 | 38072 ft | 444 kts | 246° |
| 2026-05-08 20:12 | 45.94964 | 17.16169 | 38074 ft | 444 kts | 246° |
| 2026-05-08 20:12 | 45.92447 | 17.08064 | 38069 ft | 444 kts | 246° |
| 2026-05-08 20:13 | 45.89930 | 16.99969 | 38072 ft | 444 kts | 246° |
| 2026-05-08 20:13 | 45.87403 | 16.91882 | 38070 ft | 444 kts | 246° |
| 2026-05-08 20:14 | 45.84868 | 16.83814 | 38069 ft | 444 kts | 246° |
| 2026-05-08 20:14 | 45.82329 | 16.75752 | 38073 ft | 444 kts | 246° |
| 2026-05-08 20:15 | 45.79783 | 16.67695 | 38077 ft | 444 kts | 246° |
| 2026-05-08 20:15 | 45.77235 | 16.59640 | 38073 ft | 444 kts | 246° |
| 2026-05-08 20:16 | 45.74684 | 16.51595 | 38080 ft | 443 kts | 246° |
| 2026-05-08 20:16 | 45.72129 | 16.43566 | 38092 ft | 443 kts | 245° |
| 2026-05-08 20:17 | 45.69568 | 16.35548 | 38089 ft | 443 kts | 245° |
| 2026-05-08 20:17 | 45.67001 | 16.27541 | 38093 ft | 443 kts | 245° |
| 2026-05-08 20:18 | 45.64426 | 16.19547 | 38085 ft | 443 kts | 245° |
| 2026-05-08 20:18 | 45.61866 | 16.11613 | 38093 ft | 443 kts | 245° |
| 2026-05-08 20:19 | 45.59284 | 16.03643 | 38083 ft | 442 kts | 245° |
| 2026-05-08 20:19 | 45.56699 | 15.95669 | 38083 ft | 443 kts | 245° |
| 2026-05-08 20:20 | 45.54107 | 15.87701 | 38080 ft | 443 kts | 245° |
| 2026-05-08 20:20 | 45.51507 | 15.79734 | 38079 ft | 443 kts | 245° |
| 2026-05-08 20:21 | 45.48900 | 15.71767 | 38078 ft | 443 kts | 245° |
| 2026-05-08 20:21 | 45.46282 | 15.63813 | 38076 ft | 443 kts | 245° |
| 2026-05-08 20:22 | 45.44002 | 15.55683 | 38081 ft | 443 kts | 257° |
| 2026-05-08 20:22 | 45.43161 | 15.48491 | 38081 ft | 443 kts | 261° |
| 2026-05-08 20:23 | 45.42045 | 15.38357 | 38081 ft | 444 kts | 261° |
| 2026-05-08 20:23 | 45.41071 | 15.29680 | 38080 ft | 444 kts | 261° |
| 2026-05-08 20:24 | 45.40095 | 15.21002 | 38091 ft | 444 kts | 261° |
| 2026-05-08 20:24 | 45.39114 | 15.12328 | 38085 ft | 444 kts | 261° |
| 2026-05-08 20:25 | 45.38129 | 15.03660 | 38101 ft | 444 kts | 261° |
| 2026-05-08 20:25 | 45.37136 | 14.94993 | 38096 ft | 444 kts | 261° |
| 2026-05-08 20:26 | 45.36138 | 14.86339 | 38102 ft | 443 kts | 261° |
| 2026-05-08 20:26 | 45.35126 | 14.77696 | 38095 ft | 443 kts | 261° |
| 2026-05-08 20:27 | 45.34106 | 14.69071 | 38099 ft | 442 kts | 261° |
| 2026-05-08 20:27 | 45.33092 | 14.60457 | 38103 ft | 442 kts | 261° |
| 2026-05-08 20:28 | 45.32083 | 14.51852 | 38104 ft | 441 kts | 261° |
| 2026-05-08 20:28 | 45.31061 | 14.43253 | 38107 ft | 441 kts | 261° |
| 2026-05-08 20:29 | 45.30037 | 14.34728 | 38107 ft | 441 kts | 261° |
| 2026-05-08 20:29 | 45.28996 | 14.26159 | 38104 ft | 440 kts | 260° |
| 2026-05-08 20:30 | 45.27948 | 14.17593 | 38106 ft | 440 kts | 261° |
| 2026-05-08 20:30 | 45.26899 | 14.09035 | 38100 ft | 440 kts | 261° |
| 2026-05-08 20:31 | 45.25846 | 14.00494 | 38105 ft | 439 kts | 260° |
| 2026-05-08 20:31 | 45.24787 | 13.91964 | 38095 ft | 439 kts | 260° |
| 2026-05-08 20:32 | 45.23722 | 13.83449 | 38096 ft | 438 kts | 260° |
| 2026-05-08 20:32 | 45.22651 | 13.74943 | 38102 ft | 437 kts | 260° |
| 2026-05-08 20:33 | 45.21576 | 13.66453 | 38094 ft | 437 kts | 260° |
| 2026-05-08 20:33 | 45.20493 | 13.57982 | 38092 ft | 436 kts | 260° |
| 2026-05-08 20:34 | 45.19412 | 13.49522 | 38095 ft | 436 kts | 261° |
| 2026-05-08 20:34 | 45.19442 | 13.40994 | 38092 ft | 435 kts | 281° |
| 2026-05-08 20:35 | 45.20134 | 13.36818 | 38093 ft | 435 kts | 282° |
| 2026-05-08 20:35 | 45.21542 | 13.28462 | 38089 ft | 435 kts | 282° |
| 2026-05-08 20:36 | 45.22924 | 13.20100 | 38088 ft | 435 kts | 282° |
| 2026-05-08 20:36 | 45.24293 | 13.11731 | 38085 ft | 435 kts | 282° |
| 2026-05-08 20:37 | 45.25657 | 13.03364 | 38083 ft | 435 kts | 282° |
| 2026-05-08 20:37 | 45.27454 | 12.95156 | 38080 ft | 437 kts | 289° |
| 2026-05-08 20:38 | 45.29607 | 12.87094 | 38086 ft | 437 kts | 289° |
| 2026-05-08 20:38 | 45.31738 | 12.79016 | 38083 ft | 437 kts | 288° |
| 2026-05-08 20:39 | 45.33500 | 12.72297 | 38081 ft | 437 kts | 289° |
| 2026-05-08 20:39 | 45.35622 | 12.64210 | 38086 ft | 437 kts | 289° |
| 2026-05-08 20:40 | 45.38095 | 12.54808 | 38092 ft | 437 kts | 288° |
| 2026-05-08 20:40 | 45.40205 | 12.46711 | 38099 ft | 436 kts | 288° |
| 2026-05-08 20:41 | 45.41967 | 12.39923 | 38098 ft | 436 kts | 288° |
| 2026-05-08 20:41 | 45.44065 | 12.31817 | 38103 ft | 436 kts | 288° |
| 2026-05-08 20:42 | 45.46159 | 12.23713 | 38100 ft | 436 kts | 288° |
| 2026-05-08 20:42 | 45.48228 | 12.15661 | 38094 ft | 436 kts | 288° |
| 2026-05-08 20:43 | 45.50304 | 12.07544 | 38092 ft | 436 kts | 288° |
| 2026-05-08 20:43 | 45.52370 | 11.99418 | 38085 ft | 436 kts | 288° |
| 2026-05-08 20:44 | 45.53734 | 11.91048 | 38078 ft | 433 kts | 279° |
| 2026-05-08 20:44 | 45.54793 | 11.82592 | 38072 ft | 433 kts | 279° |
| 2026-05-08 20:45 | 45.55833 | 11.74127 | 38066 ft | 433 kts | 279° |
| 2026-05-08 20:45 | 45.56873 | 11.65656 | 38060 ft | 433 kts | 279° |
| 2026-05-08 20:46 | 45.57914 | 11.57190 | 38063 ft | 433 kts | 279° |
| 2026-05-08 20:46 | 45.58950 | 11.48713 | 38060 ft | 433 kts | 279° |
| 2026-05-08 20:47 | 45.59977 | 11.40247 | 38064 ft | 433 kts | 278° |
| 2026-05-08 20:47 | 45.60984 | 11.31877 | 38063 ft | 433 kts | 278° |
| 2026-05-08 20:48 | 45.62000 | 11.23412 | 38071 ft | 432 kts | 278° |
| 2026-05-08 20:48 | 45.62998 | 11.14942 | 38076 ft | 433 kts | 278° |
| 2026-05-08 20:49 | 45.63997 | 11.06473 | 38078 ft | 432 kts | 278° |
| 2026-05-08 20:49 | 45.64500 | 10.97937 | 38079 ft | 431 kts | 270° |
| 2026-05-08 20:50 | 45.64570 | 10.89366 | 38080 ft | 431 kts | 270° |
| 2026-05-08 20:50 | 45.64623 | 10.80789 | 38076 ft | 432 kts | 270° |
| 2026-05-08 20:51 | 45.64684 | 10.72202 | 38075 ft | 432 kts | 270° |
| 2026-05-08 20:51 | 45.64751 | 10.63608 | 38081 ft | 433 kts | 270° |
| 2026-05-08 20:52 | 45.64804 | 10.54998 | 38078 ft | 433 kts | 270° |
| 2026-05-08 20:52 | 45.64830 | 10.46396 | 38082 ft | 433 kts | 270° |
| 2026-05-08 20:53 | 45.64843 | 10.37773 | 38080 ft | 434 kts | 270° |
| 2026-05-08 20:53 | 45.64877 | 10.29149 | 38067 ft | 434 kts | 270° |
| 2026-05-08 20:54 | 45.64903 | 10.20517 | 38069 ft | 434 kts | 270° |
| 2026-05-08 20:54 | 45.65060 | 10.11893 | 38069 ft | 435 kts | 279° |
| 2026-05-08 20:55 | 45.66966 | 10.03668 | 38087 ft | 437 kts | 288° |
| 2026-05-08 20:55 | 45.69094 | 9.95511 | 38088 ft | 438 kts | 289° |
| 2026-05-08 20:56 | 45.71223 | 9.87350 | 38088 ft | 438 kts | 289° |
| 2026-05-08 20:56 | 45.72444 | 9.79017 | 38083 ft | 433 kts | 262° |
| 2026-05-08 20:56 | 45.71547 | 9.74934 | 38073 ft | 434 kts | 242° |
| 2026-05-08 20:57 | 45.69639 | 9.71596 | 38067 ft | 439 kts | 221° |
| 2026-05-08 20:57 | 45.66950 | 9.69447 | 38085 ft | 451 kts | 201° |
| 2026-05-08 20:57 | 45.63816 | 9.68787 | 38082 ft | 464 kts | 180° |
| 2026-05-08 20:57 | 45.60638 | 9.69748 | 38084 ft | 476 kts | 160° |
| 2026-05-08 20:58 | 45.57793 | 9.72229 | 38083 ft | 485 kts | 143° |
| 2026-05-08 20:58 | 45.52572 | 9.78381 | 38077 ft | 486 kts | 148° |
| 2026-05-08 20:58 | 45.49686 | 9.80816 | 38072 ft | 479 kts | 160° |
| 2026-05-08 20:59 | 45.46557 | 9.82325 | 38065 ft | 472 kts | 172° |
| 2026-05-08 20:59 | 45.40092 | 9.83359 | 38058 ft | 466 kts | 181° |
| 2026-05-08 21:00 | 45.33626 | 9.84176 | 38048 ft | 473 kts | 166° |
| 2026-05-08 21:00 | 45.30648 | 9.86234 | 38042 ft | 483 kts | 146° |
| 2026-05-08 21:00 | 45.28280 | 9.89649 | 38039 ft | 492 kts | 126° |
| 2026-05-08 21:00 | 45.26809 | 9.94050 | 38048 ft | 498 kts | 105° |
| 2026-05-08 21:01 | 45.26422 | 9.98926 | 38051 ft | 500 kts | 85° |
| 2026-05-08 21:01 | 45.27170 | 10.03718 | 38046 ft | 498 kts | 65° |
| 2026-05-08 21:01 | 45.28946 | 10.07881 | 38046 ft | 491 kts | 48° |
| 2026-05-08 21:02 | 45.33742 | 10.14673 | 38034 ft | 485 kts | 32° |
| 2026-05-08 21:02 | 45.39429 | 10.19789 | 38036 ft | 481 kts | 21° |
| 2026-05-08 21:03 | 45.45545 | 10.23665 | 38039 ft | 477 kts | 8° |
| 2026-05-08 21:03 | 45.48747 | 10.24035 | 38038 ft | 463 kts | 348° |
| 2026-05-08 21:03 | 45.51826 | 10.22805 | 38038 ft | 449 kts | 328° |
| 2026-05-08 21:03 | 45.54280 | 10.20191 | 38032 ft | 437 kts | 307° |
| 2026-05-08 21:04 | 45.55838 | 10.16607 | 38029 ft | 429 kts | 287° |
| 2026-05-08 21:04 | 45.56345 | 10.12467 | 38024 ft | 425 kts | 266° |
| 2026-05-08 21:04 | 45.55825 | 10.08331 | 38025 ft | 425 kts | 256° |
| 2026-05-08 21:04 | 45.54910 | 10.04307 | 38075 ft | 431 kts | 244° |
| 2026-05-08 21:05 | 45.53113 | 10.00873 | 38054 ft | 439 kts | 223° |
| 2026-05-08 21:05 | 45.48538 | 9.95125 | 38048 ft | 436 kts | 240° |
| 2026-05-08 21:05 | 45.47373 | 9.91191 | 38067 ft | 432 kts | 260° |
| 2026-05-08 21:06 | 45.47319 | 9.86935 | 38069 ft | 433 kts | 280° |
| 2026-05-08 21:06 | 45.48389 | 9.82931 | 38073 ft | 438 kts | 301° |
| 2026-05-08 21:06 | 45.50450 | 9.79718 | 38077 ft | 446 kts | 321° |
| 2026-05-08 21:06 | 45.53246 | 9.77734 | 38081 ft | 457 kts | 341° |
| 2026-05-08 21:07 | 45.56439 | 9.77269 | 38082 ft | 469 kts | 2° |
| 2026-05-08 21:07 | 45.59623 | 9.78424 | 38086 ft | 481 kts | 22° |
| 2026-05-08 21:07 | 45.62416 | 9.81102 | 38084 ft | 490 kts | 42° |
| 2026-05-08 21:07 | 45.64464 | 9.85010 | 38083 ft | 497 kts | 63° |
| 2026-05-08 21:08 | 45.65519 | 9.89707 | 38083 ft | 500 kts | 83° |
| 2026-05-08 21:08 | 45.65451 | 9.94645 | 38084 ft | 499 kts | 103° |
| 2026-05-08 21:08 | 45.64268 | 9.99262 | 38082 ft | 494 kts | 124° |
| 2026-05-08 21:08 | 45.62121 | 10.03014 | 38081 ft | 485 kts | 144° |
| 2026-05-08 21:09 | 45.59282 | 10.05478 | 38062 ft | 474 kts | 164° |
| 2026-05-08 21:09 | 45.56102 | 10.06394 | 38059 ft | 462 kts | 185° |
| 2026-05-08 21:09 | 45.52979 | 10.05713 | 38062 ft | 452 kts | 202° |
| 2026-05-08 21:09 | 45.50209 | 10.03735 | 38052 ft | 442 kts | 222° |
| 2026-05-08 21:10 | 45.48171 | 10.00537 | 38056 ft | 435 kts | 242° |
| 2026-05-08 21:10 | 45.47123 | 9.96542 | 38059 ft | 432 kts | 262° |
| 2026-05-08 21:10 | 45.47197 | 9.92296 | 38053 ft | 433 kts | 283° |
| 2026-05-08 21:10 | 45.48389 | 9.88353 | 38075 ft | 438 kts | 303° |
| 2026-05-08 21:11 | 45.50548 | 9.85260 | 38075 ft | 447 kts | 323° |
| 2026-05-08 21:11 | 45.53409 | 9.83439 | 38078 ft | 459 kts | 343° |
| 2026-05-08 21:11 | 45.56618 | 9.83157 | 38086 ft | 471 kts | 4° |
| 2026-05-08 21:11 | 45.59781 | 9.84495 | 38083 ft | 482 kts | 24° |
| 2026-05-08 21:12 | 45.62507 | 9.87332 | 38088 ft | 491 kts | 45° |
| 2026-05-08 21:12 | 45.64453 | 9.91350 | 38085 ft | 497 kts | 65° |
| 2026-05-08 21:12 | 45.65385 | 9.96102 | 38086 ft | 500 kts | 85° |
| 2026-05-08 21:13 | 45.65850 | 10.06003 | 38084 ft | 501 kts | 71° |
| 2026-05-08 21:13 | 45.67336 | 10.10457 | 38076 ft | 496 kts | 51° |
| 2026-05-08 21:13 | 45.69725 | 10.13928 | 38085 ft | 488 kts | 31° |
| 2026-05-08 21:13 | 45.72724 | 10.16033 | 38089 ft | 477 kts | 11° |
| 2026-05-08 21:14 | 45.75966 | 10.16548 | 38107 ft | 465 kts | 350° |
| 2026-05-08 21:14 | 45.79048 | 10.15454 | 38112 ft | 453 kts | 330° |
| 2026-05-08 21:14 | 45.81590 | 10.12928 | 38113 ft | 442 kts | 309° |
| 2026-05-08 21:14 | 45.83282 | 10.09321 | 38111 ft | 435 kts | 289° |
| 2026-05-08 21:15 | 45.83912 | 10.05129 | 38111 ft | 432 kts | 269° |
| 2026-05-08 21:15 | 45.83406 | 10.00908 | 38104 ft | 433 kts | 249° |
| 2026-05-08 21:15 | 45.81828 | 9.97233 | 38099 ft | 439 kts | 229° |
| 2026-05-08 21:15 | 45.79412 | 9.94626 | 38091 ft | 448 kts | 208° |
| 2026-05-08 21:16 | 45.76358 | 9.93371 | 38088 ft | 459 kts | 189° |
| 2026-05-08 21:16 | 45.73179 | 9.93375 | 38087 ft | 467 kts | 178° |
| 2026-05-08 21:16 | 45.69948 | 9.94052 | 38084 ft | 472 kts | 173° |
| 2026-05-08 21:16 | 45.66741 | 9.95077 | 37949 ft | 472 kts | 170° |
| 2026-05-08 21:17 | 45.63551 | 9.96222 | 37242 ft | 473 kts | 170° |
| 2026-05-08 21:17 | 45.60356 | 9.97402 | 36461 ft | 476 kts | 170° |
| 2026-05-08 21:17 | 45.57163 | 9.98615 | 35307 ft | 475 kts | 170° |
| 2026-05-08 21:17 | 45.53956 | 9.99883 | 33842 ft | 481 kts | 170° |
| 2026-05-08 21:18 | 45.50726 | 10.01180 | 32164 ft | 485 kts | 169° |
| 2026-05-08 21:18 | 45.47446 | 10.02433 | 30461 ft | 490 kts | 169° |
| 2026-05-08 21:18 | 45.44127 | 10.03620 | 28477 ft | 494 kts | 169° |
| 2026-05-08 21:18 | 45.40777 | 10.04754 | 26470 ft | 495 kts | 169° |
| 2026-05-08 21:19 | 45.37423 | 10.05834 | 24586 ft | 494 kts | 169° |
| 2026-05-08 21:19 | 45.34107 | 10.06851 | 23344 ft | 478 kts | 170° |
| 2026-05-08 21:19 | 45.30907 | 10.07808 | 21879 ft | 463 kts | 170° |
| 2026-05-08 21:19 | 45.27806 | 10.08815 | 20397 ft | 453 kts | 163° |
| 2026-05-08 21:20 | 45.24921 | 10.10478 | 18999 ft | 442 kts | 157° |
| 2026-05-08 21:20 | 45.22138 | 10.12228 | 17520 ft | 433 kts | 157° |
| 2026-05-08 21:20 | 45.19410 | 10.13931 | 16029 ft | 424 kts | 157° |
| 2026-05-08 21:20 | 45.16740 | 10.15584 | 14649 ft | 415 kts | 157° |
| 2026-05-08 21:21 | 45.14113 | 10.17194 | 13309 ft | 407 kts | 157° |
| 2026-05-08 21:21 | 45.11556 | 10.18807 | 11924 ft | 398 kts | 152° |
| 2026-05-08 21:21 | 45.09345 | 10.21066 | 10619 ft | 389 kts | 136° |
| 2026-05-08 21:21 | 45.07701 | 10.24040 | 9261 ft | 381 kts | 119° |
| 2026-05-08 21:22 | 45.06740 | 10.27475 | 7904 ft | 373 kts | 103° |
| 2026-05-08 21:22 | 45.06494 | 10.31079 | 6612 ft | 365 kts | 88° |
| 2026-05-08 21:22 | 45.06973 | 10.34528 | 5888 ft | 345 kts | 71° |
| 2026-05-08 21:22 | 45.07950 | 10.37444 | 5692 ft | 314 kts | 58° |
| 2026-05-08 21:23 | 45.09226 | 10.39786 | 5522 ft | 289 kts | 46° |
| 2026-05-08 21:23 | 45.10703 | 10.41550 | 5349 ft | 268 kts | 34° |
| 2026-05-08 21:23 | 45.12292 | 10.42750 | 5168 ft | 251 kts | 22° |
| 2026-05-08 21:23 | 45.13906 | 10.43451 | 4995 ft | 235 kts | 12° |
| 2026-05-08 21:24 | 45.15473 | 10.43724 | 4819 ft | 220 kts | 2° |
| 2026-05-08 21:24 | 45.16979 | 10.43631 | 4643 ft | 214 kts | 353° |
| 2026-05-08 21:24 | 45.18426 | 10.43207 | 4465 ft | 212 kts | 343° |
| 2026-05-08 21:24 | 45.19800 | 10.42463 | 4290 ft | 211 kts | 334° |
| 2026-05-08 21:25 | 45.21068 | 10.41428 | 4116 ft | 210 kts | 325° |
| 2026-05-08 21:25 | 45.22238 | 10.40239 | 4020 ft | 210 kts | 325° |
| 2026-05-08 21:25 | 45.23429 | 10.39042 | 3995 ft | 210 kts | 325° |
| 2026-05-08 21:25 | 45.24621 | 10.37846 | 3998 ft | 210 kts | 325° |
| 2026-05-08 21:26 | 45.25815 | 10.36645 | 3996 ft | 210 kts | 325° |
| 2026-05-08 21:26 | 45.27007 | 10.35444 | 3998 ft | 210 kts | 325° |
| 2026-05-08 21:26 | 45.28198 | 10.34241 | 3998 ft | 210 kts | 324° |
| 2026-05-08 21:26 | 45.29389 | 10.33038 | 4005 ft | 210 kts | 324° |
| 2026-05-08 21:27 | 45.30578 | 10.31835 | 4010 ft | 210 kts | 324° |
| 2026-05-08 21:27 | 45.31768 | 10.30631 | 4001 ft | 210 kts | 324° |
| 2026-05-08 21:27 | 45.32570 | 10.29818 | 4010 ft | 210 kts | 324° |
| 2026-05-08 21:27 | 45.34143 | 10.28222 | 3981 ft | 210 kts | 324° |
| 2026-05-08 21:28 | 45.34930 | 10.27424 | 3979 ft | 210 kts | 324° |
| 2026-05-08 21:28 | 45.36118 | 10.26219 | 3978 ft | 210 kts | 324° |
| 2026-05-08 21:28 | 45.37319 | 10.24997 | 3983 ft | 210 kts | 324° |
| 2026-05-08 21:28 | 45.38507 | 10.23791 | 3976 ft | 210 kts | 324° |
| 2026-05-08 21:29 | 45.39696 | 10.22586 | 3988 ft | 210 kts | 324° |
| 2026-05-08 21:29 | 45.40867 | 10.21399 | 3984 ft | 210 kts | 324° |
| 2026-05-08 21:29 | 45.42058 | 10.20190 | 3984 ft | 210 kts | 324° |
| 2026-05-08 21:29 | 45.43247 | 10.18982 | 3987 ft | 210 kts | 324° |
| 2026-05-08 21:30 | 45.44434 | 10.17770 | 3981 ft | 209 kts | 324° |
| 2026-05-08 21:30 | 45.45617 | 10.16562 | 3974 ft | 209 kts | 324° |
| 2026-05-08 21:30 | 45.46802 | 10.15354 | 3977 ft | 209 kts | 324° |
| 2026-05-08 21:30 | 45.47987 | 10.14147 | 3983 ft | 209 kts | 324° |
| 2026-05-08 21:31 | 45.49171 | 10.12940 | 3982 ft | 209 kts | 324° |
| 2026-05-08 21:31 | 45.50356 | 10.11731 | 3979 ft | 209 kts | 324° |
| 2026-05-08 21:31 | 45.51541 | 10.10524 | 3983 ft | 209 kts | 324° |
| 2026-05-08 21:31 | 45.52727 | 10.09314 | 3987 ft | 209 kts | 324° |
| 2026-05-08 21:32 | 45.53911 | 10.08103 | 3986 ft | 209 kts | 324° |
| 2026-05-08 21:32 | 45.55094 | 10.06893 | 3986 ft | 209 kts | 324° |
| 2026-05-08 21:32 | 45.56278 | 10.05683 | 3986 ft | 209 kts | 324° |
| 2026-05-08 21:32 | 45.57460 | 10.04473 | 3989 ft | 209 kts | 324° |
| 2026-05-08 21:33 | 45.58642 | 10.03260 | 3994 ft | 209 kts | 324° |
| 2026-05-08 21:33 | 45.59820 | 10.02049 | 4003 ft | 206 kts | 324° |
| 2026-05-08 21:33 | 45.60869 | 10.00737 | 3997 ft | 197 kts | 307° |
| 2026-05-08 21:33 | 45.61479 | 9.99013 | 3936 ft | 194 kts | 285° |
| 2026-05-08 21:34 | 45.61829 | 9.97150 | 3814 ft | 194 kts | 285° |
| 2026-05-08 21:34 | 45.62178 | 9.95293 | 3689 ft | 193 kts | 285° |
| 2026-05-08 21:34 | 45.62517 | 9.93491 | 3629 ft | 180 kts | 285° |
| 2026-05-08 21:34 | 45.62834 | 9.91808 | 3476 ft | 171 kts | 285° |
| 2026-05-08 21:35 | 45.63136 | 9.90204 | 3276 ft | 163 kts | 285° |
| 2026-05-08 21:35 | 45.63421 | 9.88688 | 3074 ft | 154 kts | 285° |
| 2026-05-08 21:35 | 45.63693 | 9.87239 | 2894 ft | 147 kts | 285° |
| 2026-05-08 21:35 | 45.63956 | 9.85839 | 2694 ft | 145 kts | 285° |
| 2026-05-08 21:36 | 45.64214 | 9.84460 | 2503 ft | 143 kts | 285° |
| 2026-05-08 21:36 | 45.64472 | 9.83085 | 2322 ft | 143 kts | 285° |
| 2026-05-08 21:36 | 45.64727 | 9.81720 | 2121 ft | 142 kts | 285° |
| 2026-05-08 21:36 | 45.64982 | 9.80357 | 1930 ft | 142 kts | 285° |
| 2026-05-08 21:37 | 45.65237 | 9.78998 | 1737 ft | 141 kts | 285° |
| 2026-05-08 21:37 | 45.65488 | 9.77648 | 1564 ft | 140 kts | 286° |
| 2026-05-08 21:37 | 45.65736 | 9.76300 | 1381 ft | 140 kts | 287° |
| 2026-05-08 21:37 | 45.65987 | 9.74960 | 1172 ft | 139 kts | 288° |
| 2026-05-08 21:38 | 45.66236 | 9.73647 | 1014 ft | 139 kts | 287° |
| 2026-05-08 21:38 | 45.66484 | 9.72313 | 827 ft | 138 kts | 288° |
| 2026-05-08 21:38 | 45.66725 | 9.71024 | 776 ft | 121 kts | 286° |
| 2026-05-08 21:38 | 45.66878 | 9.70195 | 785 ft | 43 kts | 283° |
| 2026-05-08 21:39 | 45.66879 | 9.70007 | 785 ft | 15 kts | 256° |
| 2026-05-08 21:39 | 45.66839 | 9.69874 | 785 ft | 12 kts | 240° |
| 2026-05-08 21:39 | 45.66804 | 9.69789 | 785 ft | 11 kts | 240° |
| 2026-05-08 21:39 | 45.66804 | 9.69678 | 786 ft | 13 kts | 288° |
| 2026-05-08 21:40 | 45.66808 | 9.69579 | 787 ft | 2 kts | 219° |
| 2026-05-08 21:40 | 45.66803 | 9.69579 | 787 ft | 1 kts | 194° |
| 2026-05-08 21:40 | 45.66785 | 9.69576 | 787 ft | 4 kts | 188° |
| 2026-05-08 21:41 | 45.66748 | 9.69563 | 787 ft | 0 kts | 194° |